Weather at Bentiang Airstrip

Public forecast

Using degrees Celsius for public forecast. Weather courtesy of forecast.io.

Closest aviation weather report (METAR) to Bentiang Airstrip

Closest report is Kuching International Airport, 43.0 nm (79.7 km) NE.

2024/05/28 16:30 (retrieved 39 minutes ago)

WBGG 281630Z 26003KT 210V300 6000 -RA SCT018 25/24 Q1010 RETS TEMPO 6000 -RA

Closest aviation forecast (TAF) to Bentiang Airstrip

Closest forecast is Kuching International Airport, 43.0 nm (79.7 km) NE.

2024/05/28 13:18 Ammendment (retrieved 4 hours ago)

TAF AMD WBGG 281355Z 2813/2912 VRB03KT 9999 FEW020 TEMPO 2814/2818 4000 TSRA FEW015CB SCT020